Time;durP1;ratioP1;P1;durP2;ratioP2;P2;SDS_P1;SDS_P2;PMS_P1;PMS_P2;Temp;Humidity;BMP_temperature;BMP_pressure;BME280_temperature;BME280_humidity;BME280_pressure;Samples;Min_cycle;Max_cycle;Signal;HPM_P1;HPM_P2
2024/01/05 00:01:26;;;;;;;5.17;2.47;;;;;;;;;;5026239;28;20190;-54
2024/01/05 00:03:52;;;;;;;12.03;2.70;;;;;;;;;;5020786;28;20623;-54
2024/01/05 00:06:18;;;;;;;3.33;1.83;;;;;;;;;;5033474;28;20271;-54
2024/01/05 00:08:44;;;;;;;9.83;2.83;;;;;;;;;;5030857;28;20189;-54
2024/01/05 00:11:17;;;;;;;7.67;3.00;;;;;;;;;;5032981;28;20154;-53
2024/01/05 00:13:43;;;;;;;5.30;2.13;;;;;;;;;;5030767;28;20240;-54
2024/01/05 00:16:09;;;;;;;6.47;2.50;;;;;;;;;;5030151;28;20197;-53
2024/01/05 00:18:36;;;;;;;6.23;2.27;;;;;;;;;;5030350;28;20228;-54
2024/01/05 00:21:02;;;;;;;4.43;2.07;;;;;;;;;;5030907;28;20213;-54
2024/01/05 00:23:28;;;;;;;8.00;2.50;;;;;;;;;;5031065;28;20680;-54
2024/01/05 00:25:55;;;;;;;4.63;2.07;;;;;;;;;;5028653;28;20209;-54
2024/01/05 00:28:21;;;;;;;5.30;2.53;;;;;;;;;;5030399;28;20281;-54
2024/01/05 00:30:47;;;;;;;7.10;2.67;;;;;;;;;;5029222;28;20268;-53
2024/01/05 00:33:12;;;;;;;5.60;2.37;;;;;;;;;;5030761;28;20213;-55
2024/01/05 00:35:39;;;;;;;8.70;2.83;;;;;;;;;;5028628;28;20189;-53
2024/01/05 00:38:05;;;;;;;7.50;2.00;;;;;;;;;;5028775;28;20213;-54
2024/01/05 00:40:31;;;;;;;4.80;2.23;;;;;;;;;;5030970;28;20174;-54
2024/01/05 00:42:56;;;;;;;9.03;2.97;;;;;;;;;;5030627;28;20676;-54
2024/01/05 00:45:22;;;;;;;8.20;2.90;;;;;;;;;;5029978;28;20181;-54
2024/01/05 00:47:48;;;;;;;7.30;2.30;;;;;;;;;;5030162;28;20664;-54
2024/01/05 00:50:14;;;;;;;8.20;2.60;;;;;;;;;;5030541;28;20239;-54
2024/01/05 00:52:41;;;;;;;8.47;3.23;;;;;;;;;;5030616;28;20185;-54
2024/01/05 00:55:07;;;;;;;6.77;2.50;;;;;;;;;;5028988;28;20684;-54
2024/01/05 00:57:33;;;;;;;6.07;2.47;;;;;;;;;;5029816;28;20213;-54
2024/01/05 00:59:59;;;;;;;7.50;2.87;;;;;;;;;;5030410;28;20174;-55
2024/01/05 01:02:25;;;;;;;9.23;2.63;;;;;;;;;;5029560;28;20859;-55
2024/01/05 01:04:51;;;;;;;6.97;2.70;;;;;;;;;;5029862;28;20539;-54
2024/01/05 01:07:17;;;;;;;3.33;1.93;;;;;;;;;;5030933;28;20657;-54
2024/01/05 01:09:43;;;;;;;7.53;3.07;;;;;;;;;;5031635;28;20186;-54
2024/01/05 01:12:09;;;;;;;8.17;3.10;;;;;;;;;;5027599;28;20189;-54
2024/01/05 01:14:35;;;;;;;7.87;2.47;;;;;;;;;;5029425;28;20210;-54
2024/01/05 01:17:01;;;;;;;10.93;3.60;;;;;;;;;;5026999;28;20241;-54
2024/01/05 01:19:27;;;;;;;10.40;2.77;;;;;;;;;;5029611;28;20193;-54
2024/01/05 01:21:53;;;;;;;8.47;2.70;;;;;;;;;;5028815;28;20217;-55
2024/01/05 01:24:19;;;;;;;5.80;2.27;;;;;;;;;;5029572;28;20610;-54
2024/01/05 01:26:45;;;;;;;7.57;3.07;;;;;;;;;;5030275;28;20170;-53
2024/01/05 01:29:11;;;;;;;5.80;2.50;;;;;;;;;;5025482;28;20233;-54
2024/01/05 01:31:37;;;;;;;4.33;2.20;;;;;;;;;;5020274;28;20289;-54
2024/01/05 01:34:03;;;;;;;5.00;2.43;;;;;;;;;;5028805;28;20292;-55
2024/01/05 01:36:29;;;;;;;8.37;3.07;;;;;;;;;;5028432;28;20280;-54
2024/01/05 01:38:55;;;;;;;9.63;3.10;;;;;;;;;;5029159;28;20642;-53
2024/01/05 01:41:21;;;;;;;5.70;2.60;;;;;;;;;;5029416;28;20640;-54
2024/01/05 01:43:50;;;;;;;7.93;2.60;;;;;;;;;;5029330;28;20197;-54
2024/01/05 01:46:16;;;;;;;6.83;2.63;;;;;;;;;;5023928;28;20599;-54
2024/01/05 01:48:44;;;;;;;4.27;2.50;;;;;;;;;;5027719;28;20638;-54
2024/01/05 01:51:10;;;;;;;6.13;2.43;;;;;;;;;;5028644;28;20186;-54
2024/01/05 01:53:36;;;;;;;7.13;2.53;;;;;;;;;;5029133;28;20672;-54
2024/01/05 01:56:03;;;;;;;12.57;3.60;;;;;;;;;;5033382;28;20274;-54
2024/01/05 01:58:29;;;;;;;6.17;2.53;;;;;;;;;;5029729;28;20206;-55
2024/01/05 02:00:55;;;;;;;5.23;2.17;;;;;;;;;;5028559;28;20165;-55
2024/01/05 02:03:21;;;;;;;8.80;2.50;;;;;;;;;;5029385;28;20185;-55
2024/01/05 02:05:47;;;;;;;4.37;2.00;;;;;;;;;;5027138;28;20181;-54
2024/01/05 02:08:15;;;;;;;6.00;2.70;;;;;;;;;;5030240;28;20193;-55
2024/01/05 02:10:41;;;;;;;5.47;2.17;;;;;;;;;;5026777;28;20192;-55
2024/01/05 02:13:07;;;;;;;8.80;2.80;;;;;;;;;;5027340;28;20681;-54
2024/01/05 02:15:33;;;;;;;5.93;2.50;;;;;;;;;;5028392;28;20189;-54
2024/01/05 02:17:59;;;;;;;5.93;2.60;;;;;;;;;;5028361;28;20197;-54
2024/01/05 02:20:25;;;;;;;11.07;2.63;;;;;;;;;;5025956;28;20222;-55
2024/01/05 02:22:54;;;;;;;8.40;2.17;;;;;;;;;;5028399;28;20544;-54
2024/01/05 02:25:20;;;;;;;8.00;2.80;;;;;;;;;;5027848;28;20166;-56
2024/01/05 02:27:46;;;;;;;4.73;2.67;;;;;;;;;;5029648;28;20173;-54
2024/01/05 02:30:18;;;;;;;6.73;3.03;;;;;;;;;;5028691;28;20181;-54
2024/01/05 02:32:44;;;;;;;7.00;2.77;;;;;;;;;;5028402;28;20193;-54
2024/01/05 02:35:10;;;;;;;5.53;2.27;;;;;;;;;;5026736;28;20205;-54
2024/01/05 02:37:36;;;;;;;5.17;2.13;;;;;;;;;;5028225;28;20209;-55
2024/01/05 02:40:02;;;;;;;6.93;2.57;;;;;;;;;;5032167;28;20668;-54
2024/01/05 02:42:32;;;;;;;6.87;2.87;;;;;;;;;;5030468;28;20269;-55
2024/01/05 02:44:58;;;;;;;7.67;2.13;;;;;;;;;;5033762;28;20695;-57
2024/01/05 02:47:24;;;;;;;11.17;2.53;;;;;;;;;;5032812;28;20218;-58
2024/01/05 02:49:50;;;;;;;6.70;2.43;;;;;;;;;;5038196;28;20180;-58
2024/01/05 02:52:16;;;;;;;7.77;2.73;;;;;;;;;;5032671;28;20718;-58
2024/01/05 02:54:44;;;;;;;7.67;2.30;;;;;;;;;;5031653;28;20194;-58
2024/01/05 02:57:10;;;;;;;5.60;2.30;;;;;;;;;;5030851;28;20730;-58
2024/01/05 02:59:36;;;;;;;5.17;2.17;;;;;;;;;;5030303;28;20194;-58
2024/01/05 03:02:02;;;;;;;6.83;1.63;;;;;;;;;;5031229;28;20181;-58
2024/01/05 03:04:28;;;;;;;5.53;2.37;;;;;;;;;;5031029;28;20743;-57
2024/01/05 03:06:54;;;;;;;4.03;2.17;;;;;;;;;;5030883;28;20244;-58
2024/01/05 03:09:20;;;;;;;4.23;1.87;;;;;;;;;;5031679;28;20189;-58
2024/01/05 03:11:46;;;;;;;4.07;2.10;;;;;;;;;;5031062;28;20193;-57
2024/01/05 03:14:13;;;;;;;6.33;2.43;;;;;;;;;;5031166;28;20206;-58
2024/01/05 03:16:39;;;;;;;4.87;2.70;;;;;;;;;;5029884;28;20185;-58
2024/01/05 03:19:05;;;;;;;5.33;2.63;;;;;;;;;;5030655;28;20197;-58
2024/01/05 03:21:32;;;;;;;5.43;1.93;;;;;;;;;;5030070;28;20275;-58
2024/01/05 03:23:58;;;;;;;5.70;2.10;;;;;;;;;;5030861;28;20182;-57
2024/01/05 03:26:24;;;;;;;6.73;2.20;;;;;;;;;;5029736;28;20276;-58
2024/01/05 03:28:50;;;;;;;7.87;2.33;;;;;;;;;;5030209;28;20177;-58
2024/01/05 03:31:16;;;;;;;3.77;2.07;;;;;;;;;;5031923;28;20212;-58
2024/01/05 03:33:44;;;;;;;3.93;2.30;;;;;;;;;;5030414;28;20193;-58
2024/01/05 03:36:10;;;;;;;4.80;2.40;;;;;;;;;;5030191;28;20208;-58
2024/01/05 03:38:36;;;;;;;7.43;2.67;;;;;;;;;;5030643;28;20198;-58
2024/01/05 03:41:03;;;;;;;3.67;2.17;;;;;;;;;;5031131;28;20189;-58
2024/01/05 03:43:29;;;;;;;6.70;2.40;;;;;;;;;;5030596;28;20202;-56
2024/01/05 03:45:56;;;;;;;4.20;1.83;;;;;;;;;;5033280;28;20198;-58
2024/01/05 03:48:22;;;;;;;3.87;2.07;;;;;;;;;;5031605;28;20654;-58
2024/01/05 03:50:48;;;;;;;5.27;2.00;;;;;;;;;;5030913;28;20170;-56
2024/01/05 03:53:15;;;;;;;8.47;2.10;;;;;;;;;;5029560;28;20650;-56
2024/01/05 03:55:41;;;;;;;6.50;1.80;;;;;;;;;;5030105;28;20177;-55
2024/01/05 03:58:07;;;;;;;4.20;2.17;;;;;;;;;;5030344;28;20513;-53
2024/01/05 04:00:33;;;;;;;3.37;1.87;;;;;;;;;;5038564;28;20186;-54
2024/01/05 04:02:59;;;;;;;6.63;2.27;;;;;;;;;;5030462;28;20605;-54
2024/01/05 04:05:26;;;;;;;5.10;2.07;;;;;;;;;;5029054;28;20622;-54
2024/01/05 04:07:52;;;;;;;5.87;2.30;;;;;;;;;;5030802;28;20272;-54
2024/01/05 04:10:18;;;;;;;2.70;1.80;;;;;;;;;;5030604;28;20546;-54
2024/01/05 04:12:44;;;;;;;5.40;2.63;;;;;;;;;;5030592;28;20190;-54
2024/01/05 04:15:10;;;;;;;3.50;1.80;;;;;;;;;;5031189;28;20646;-54
2024/01/05 04:17:36;;;;;;;4.93;2.17;;;;;;;;;;5032806;28;20201;-55
2024/01/05 04:20:02;;;;;;;7.47;2.27;;;;;;;;;;5030873;28;20170;-54
2024/01/05 04:22:30;;;;;;;4.07;1.80;;;;;;;;;;5037718;28;20700;-54
2024/01/05 04:24:57;;;;;;;6.80;2.83;;;;;;;;;;5030209;28;20232;-55
2024/01/05 04:27:23;;;;;;;5.77;2.20;;;;;;;;;;5021670;28;20187;-55
2024/01/05 04:29:49;;;;;;;7.13;2.00;;;;;;;;;;5031624;28;20189;-54
2024/01/05 04:32:15;;;;;;;4.67;2.10;;;;;;;;;;5030211;28;20645;-55
2024/01/05 04:34:41;;;;;;;9.00;2.80;;;;;;;;;;5031149;28;20166;-55
2024/01/05 04:37:07;;;;;;;8.87;2.47;;;;;;;;;;5031099;28;20185;-54
2024/01/05 04:39:34;;;;;;;4.60;1.90;;;;;;;;;;5030875;28;20562;-54
2024/01/05 04:42:00;;;;;;;6.13;2.43;;;;;;;;;;5030622;28;20654;-55
2024/01/05 04:44:26;;;;;;;4.87;2.57;;;;;;;;;;5030451;28;20213;-54
2024/01/05 04:46:52;;;;;;;5.90;2.50;;;;;;;;;;5031183;28;20206;-54
2024/01/05 04:49:18;;;;;;;6.53;2.90;;;;;;;;;;5029454;28;20197;-54
2024/01/05 04:51:44;;;;;;;6.07;2.57;;;;;;;;;;5030751;28;20172;-54
2024/01/05 04:54:10;;;;;;;6.07;2.83;;;;;;;;;;5026876;28;20187;-54
2024/01/05 04:56:36;;;;;;;4.83;2.20;;;;;;;;;;5030289;28;20538;-54
2024/01/05 04:59:02;;;;;;;3.07;2.00;;;;;;;;;;5030806;28;20897;-54
2024/01/05 05:01:29;;;;;;;5.47;2.00;;;;;;;;;;5029932;28;20723;-56
2024/01/05 05:03:54;;;;;;;9.50;2.60;;;;;;;;;;5029281;28;20166;-54
2024/01/05 05:06:20;;;;;;;6.70;2.63;;;;;;;;;;5029947;28;20178;-53
2024/01/05 05:08:46;;;;;;;7.63;2.27;;;;;;;;;;5029510;28;20569;-53
2024/01/05 05:11:13;;;;;;;5.60;2.10;;;;;;;;;;5030848;28;20255;-53
2024/01/05 05:13:39;;;;;;;7.70;2.20;;;;;;;;;;5028986;28;20212;-58
2024/01/05 05:16:05;;;;;;;3.23;2.30;;;;;;;;;;5030159;28;20178;-57
2024/01/05 05:18:32;;;;;;;5.03;2.27;;;;;;;;;;5031192;28;20274;-57
2024/01/05 05:20:58;;;;;;;6.73;2.00;;;;;;;;;;5028102;28;20708;-57
2024/01/05 05:23:24;;;;;;;8.40;2.40;;;;;;;;;;5028000;28;20629;-57
2024/01/05 05:25:50;;;;;;;5.63;2.30;;;;;;;;;;5028482;28;20626;-56
2024/01/05 05:28:16;;;;;;;4.00;2.53;;;;;;;;;;5029854;28;20233;-57
2024/01/05 05:30:43;;;;;;;3.57;1.93;;;;;;;;;;5030837;28;20189;-57
2024/01/05 05:33:09;;;;;;;6.90;2.33;;;;;;;;;;5028902;28;20212;-57
2024/01/05 05:35:35;;;;;;;4.67;2.20;;;;;;;;;;5029110;28;20232;-57
2024/01/05 05:38:04;;;;;;;3.03;2.10;;;;;;;;;;5028994;28;20232;-58
2024/01/05 05:40:30;;;;;;;5.40;2.57;;;;;;;;;;5029308;28;20212;-58
2024/01/05 05:42:56;;;;;;;13.43;3.37;;;;;;;;;;5029122;28;20186;-58
2024/01/05 05:45:22;;;;;;;4.70;1.90;;;;;;;;;;5028847;28;20178;-57
2024/01/05 05:47:48;;;;;;;6.27;2.40;;;;;;;;;;5023503;28;20235;-58
2024/01/05 05:50:14;;;;;;;7.67;3.00;;;;;;;;;;5027019;28;20181;-58
2024/01/05 05:52:41;;;;;;;5.03;2.27;;;;;;;;;;5028241;28;20201;-57
2024/01/05 05:55:10;;;;;;;5.83;2.10;;;;;;;;;;5029527;28;20185;-58
2024/01/05 05:57:37;;;;;;;6.53;1.93;;;;;;;;;;5027428;28;20314;-57
2024/01/05 06:00:04;;;;;;;3.97;2.07;;;;;;;;;;5028653;28;20165;-57
2024/01/05 06:02:30;;;;;;;6.20;2.40;;;;;;;;;;5028457;28;20700;-57
2024/01/05 06:04:56;;;;;;;5.13;2.87;;;;;;;;;;5037496;28;20196;-57
2024/01/05 06:07:23;;;;;;;5.53;2.37;;;;;;;;;;5030028;28;20172;-56
2024/01/05 06:09:50;;;;;;;6.33;2.90;;;;;;;;;;5026501;28;20191;-58
2024/01/05 06:12:17;;;;;;;2.93;2.10;;;;;;;;;;5023603;28;20293;-56
2024/01/05 06:14:43;;;;;;;4.00;2.47;;;;;;;;;;5028885;28;20670;-58
2024/01/05 06:17:09;;;;;;;6.87;2.33;;;;;;;;;;5030254;28;20598;-57
2024/01/05 06:19:35;;;;;;;5.23;2.63;;;;;;;;;;5028639;28;20565;-57
2024/01/05 06:22:01;;;;;;;4.27;2.63;;;;;;;;;;5028631;28;20221;-57
2024/01/05 06:24:28;;;;;;;3.30;1.67;;;;;;;;;;5027289;28;20178;-57
2024/01/05 06:26:54;;;;;;;5.40;2.17;;;;;;;;;;5029863;28;20261;-56
2024/01/05 06:29:20;;;;;;;3.10;1.97;;;;;;;;;;5023336;28;20224;-57
2024/01/05 06:31:46;;;;;;;2.47;2.10;;;;;;;;;;5017394;28;20209;-56
2024/01/05 06:34:13;;;;;;;6.20;2.00;;;;;;;;;;5022408;28;20204;-56
2024/01/05 06:36:39;;;;;;;2.70;1.60;;;;;;;;;;5029266;28;20240;-56
2024/01/05 06:39:05;;;;;;;5.27;2.10;;;;;;;;;;5026432;28;20320;-56
2024/01/05 06:41:31;;;;;;;6.67;2.07;;;;;;;;;;5037936;28;20239;-56
2024/01/05 06:43:57;;;;;;;3.53;1.97;;;;;;;;;;5019302;28;20212;-56
2024/01/05 06:46:23;;;;;;;10.13;2.43;;;;;;;;;;5023259;28;20202;-57
2024/01/05 06:48:49;;;;;;;5.60;2.20;;;;;;;;;;5033460;28;20182;-57
2024/01/05 06:51:15;;;;;;;4.43;2.10;;;;;;;;;;5027510;28;20193;-57
2024/01/05 06:53:42;;;;;;;2.63;1.60;;;;;;;;;;5029157;28;20174;-56
2024/01/05 06:56:08;;;;;;;4.90;1.90;;;;;;;;;;5027555;28;20520;-56
2024/01/05 06:58:34;;;;;;;2.87;1.83;;;;;;;;;;5027174;28;20280;-57
2024/01/05 07:01:01;;;;;;;2.73;1.70;;;;;;;;;;5021298;28;20280;-57
2024/01/05 07:03:27;;;;;;;6.03;2.23;;;;;;;;;;5031807;28;20190;-57
2024/01/05 07:05:53;;;;;;;8.37;2.40;;;;;;;;;;5029581;28;20611;-57
2024/01/05 07:08:19;;;;;;;4.70;2.43;;;;;;;;;;5028711;28;20206;-57
2024/01/05 07:10:45;;;;;;;6.13;2.47;;;;;;;;;;5028809;28;20177;-57
2024/01/05 07:13:11;;;;;;;10.20;1.70;;;;;;;;;;5021234;28;20205;-57
2024/01/05 07:15:37;;;;;;;5.53;1.77;;;;;;;;;;5026783;28;20722;-56
2024/01/05 07:18:05;;;;;;;5.67;1.97;;;;;;;;;;5028659;28;20216;-57
2024/01/05 07:20:31;;;;;;;7.27;2.00;;;;;;;;;;5015732;28;20232;-56
2024/01/05 07:22:57;;;;;;;3.50;1.70;;;;;;;;;;5028314;28;20307;-57
2024/01/05 07:25:24;;;;;;;4.93;1.87;;;;;;;;;;5022483;28;20281;-57
2024/01/05 07:27:50;;;;;;;3.03;1.87;;;;;;;;;;5024569;28;20197;-57
2024/01/05 07:30:16;;;;;;;3.23;1.70;;;;;;;;;;5030764;28;20634;-57
2024/01/05 07:32:43;;;;;;;6.47;2.00;;;;;;;;;;5031407;28;20194;-57
2024/01/05 07:35:10;;;;;;;4.13;1.83;;;;;;;;;;5028486;28;20281;-57
2024/01/05 07:37:38;;;;;;;3.63;1.83;;;;;;;;;;5030833;28;20240;-57
2024/01/05 07:40:04;;;;;;;5.33;1.97;;;;;;;;;;5031713;28;20188;-57
2024/01/05 07:42:31;;;;;;;4.10;1.73;;;;;;;;;;5032117;28;20525;-57
2024/01/05 07:44:57;;;;;;;2.93;1.53;;;;;;;;;;5026763;28;20207;-57
2024/01/05 07:47:24;;;;;;;4.20;1.90;;;;;;;;;;5026767;28;20197;-57
2024/01/05 07:49:50;;;;;;;2.73;1.70;;;;;;;;;;5028408;28;20186;-58
2024/01/05 07:52:16;;;;;;;5.10;1.93;;;;;;;;;;5022670;28;20201;-57
2024/01/05 07:54:43;;;;;;;5.13;2.60;;;;;;;;;;5024705;28;20197;-57
2024/01/05 07:57:09;;;;;;;3.13;1.70;;;;;;;;;;5029487;28;20665;-56
2024/01/05 07:59:35;;;;;;;1.80;1.60;;;;;;;;;;5030156;28;20269;-57
2024/01/05 08:02:01;;;;;;;3.60;1.80;;;;;;;;;;5031798;28;20639;-57
2024/01/05 08:04:27;;;;;;;4.03;2.00;;;;;;;;;;5028410;28;20315;-57
2024/01/05 08:06:53;;;;;;;2.83;1.70;;;;;;;;;;5022688;28;20177;-57
2024/01/05 08:09:20;;;;;;;8.10;2.10;;;;;;;;;;5030013;28;20178;-57
2024/01/05 08:11:46;;;;;;;4.00;1.43;;;;;;;;;;5031815;28;20189;-57
2024/01/05 08:14:12;;;;;;;4.73;1.80;;;;;;;;;;5031044;28;20201;-57
2024/01/05 08:16:38;;;;;;;3.70;1.90;;;;;;;;;;5031243;28;20201;-57
2024/01/05 08:19:04;;;;;;;2.27;1.60;;;;;;;;;;5026836;28;20558;-57
2024/01/05 08:21:30;;;;;;;3.37;1.37;;;;;;;;;;5030431;28;20287;-57
2024/01/05 08:23:56;;;;;;;2.97;1.67;;;;;;;;;;5025879;28;20280;-57
2024/01/05 08:26:22;;;;;;;5.13;1.70;;;;;;;;;;5029441;28;20221;-56
2024/01/05 08:28:49;;;;;;;2.97;1.77;;;;;;;;;;5031750;28;20175;-57
2024/01/05 08:31:15;;;;;;;2.80;1.63;;;;;;;;;;5031527;28;20182;-57
2024/01/05 08:33:41;;;;;;;2.40;1.30;;;;;;;;;;5029627;28;20193;-57
2024/01/05 08:36:07;;;;;;;1.93;1.50;;;;;;;;;;5028833;28;20192;-57
2024/01/05 08:38:33;;;;;;;1.93;1.37;;;;;;;;;;5023094;28;20268;-57
2024/01/05 08:40:59;;;;;;;5.13;1.63;;;;;;;;;;5028769;28;20189;-57
2024/01/05 08:43:25;;;;;;;2.17;1.27;;;;;;;;;;5028014;28;20190;-56
2024/01/05 08:45:51;;;;;;;1.20;1.10;;;;;;;;;;5024186;28;20718;-56
2024/01/05 08:48:17;;;;;;;3.10;1.60;;;;;;;;;;5026815;28;20315;-56
2024/01/05 08:50:43;;;;;;;2.13;1.17;;;;;;;;;;5024211;28;20265;-56
2024/01/05 08:53:10;;;;;;;2.27;1.17;;;;;;;;;;5029317;28;20668;-56
2024/01/05 08:55:36;;;;;;;3.03;1.20;;;;;;;;;;5029605;28;20221;-56
2024/01/05 08:58:04;;;;;;;1.80;1.10;;;;;;;;;;5027986;28;20201;-56
2024/01/05 09:00:30;;;;;;;3.67;1.50;;;;;;;;;;5031000;28;20510;-56
2024/01/05 09:02:56;;;;;;;1.23;1.10;;;;;;;;;;5031086;28;20174;-57
2024/01/05 09:05:22;;;;;;;1.83;1.40;;;;;;;;;;5030049;28;20178;-56
2024/01/05 09:07:48;;;;;;;3.77;1.20;;;;;;;;;;5030475;28;20186;-57
2024/01/05 09:10:14;;;;;;;0.80;0.80;;;;;;;;;;5030165;28;20201;-56
2024/01/05 09:12:40;;;;;;;1.00;0.90;;;;;;;;;;5030182;28;20276;-57
2024/01/05 09:15:08;;;;;;;1.17;0.90;;;;;;;;;;5030821;28;20221;-56
2024/01/05 09:17:34;;;;;;;0.80;0.80;;;;;;;;;;5030305;28;20234;-56
2024/01/05 09:20:03;;;;;;;2.00;0.90;;;;;;;;;;5030222;28;20182;-57
2024/01/05 09:22:29;;;;;;;1.27;0.83;;;;;;;;;;5029724;28;20224;-56
2024/01/05 09:24:55;;;;;;;1.80;0.93;;;;;;;;;;5029779;28;20538;-57
2024/01/05 09:27:21;;;;;;;0.77;0.70;;;;;;;;;;5029764;28;20189;-56
2024/01/05 09:29:47;;;;;;;1.03;0.93;;;;;;;;;;5030371;28;20577;-56
2024/01/05 09:32:15;;;;;;;0.73;0.70;;;;;;;;;;5030516;28;20196;-57
2024/01/05 09:34:42;;;;;;;1.87;0.93;;;;;;;;;;5029497;28;20555;-57
2024/01/05 09:37:08;;;;;;;1.33;1.10;;;;;;;;;;5028928;28;20208;-56
2024/01/05 09:39:34;;;;;;;0.80;0.80;;;;;;;;;;5030145;28;20177;-56
2024/01/05 09:42:00;;;;;;;0.90;0.90;;;;;;;;;;5030096;28;20637;-57
2024/01/05 09:44:27;;;;;;;1.10;1.10;;;;;;;;;;5030068;28;20198;-57
2024/01/05 09:46:53;;;;;;;0.70;0.70;;;;;;;;;;5022941;28;20573;-56
2024/01/05 09:49:21;;;;;;;0.97;0.87;;;;;;;;;;5028929;28;20196;-57
2024/01/05 09:51:47;;;;;;;0.97;0.97;;;;;;;;;;5030031;28;20528;-57
2024/01/05 09:54:13;;;;;;;1.00;1.00;;;;;;;;;;5029781;28;20536;-57
2024/01/05 09:56:40;;;;;;;0.90;0.90;;;;;;;;;;5026015;28;20182;-57
2024/01/05 09:59:07;;;;;;;0.97;0.90;;;;;;;;;;5030749;28;20219;-57
2024/01/05 10:01:34;;;;;;;2.57;1.00;;;;;;;;;;5029612;28;20188;-56
2024/01/05 10:04:01;;;;;;;0.80;0.80;;;;;;;;;;5027189;28;20181;-56
2024/01/05 10:06:28;;;;;;;1.17;1.00;;;;;;;;;;5028047;28;20181;-58
2024/01/05 10:08:58;;;;;;;1.00;0.90;;;;;;;;;;5028625;28;20540;-57
2024/01/05 10:11:29;;;;;;;1.20;1.07;;;;;;;;;;5031137;28;20193;-58
2024/01/05 10:13:55;;;;;;;2.53;1.33;;;;;;;;;;5022672;28;20217;-58
2024/01/05 10:16:24;;;;;;;0.70;0.70;;;;;;;;;;5027428;28;22287;-58
2024/01/05 10:18:50;;;;;;;0.70;0.70;;;;;;;;;;5026085;28;20201;-58
2024/01/05 10:21:18;;;;;;;1.67;0.90;;;;;;;;;;5027902;28;20244;-58
2024/01/05 10:23:44;;;;;;;0.70;0.70;;;;;;;;;;5026135;28;20209;-58
2024/01/05 10:26:19;;;;;;;0.80;0.80;;;;;;;;;;5027487;28;20621;-58
2024/01/05 10:28:48;;;;;;;0.70;0.70;;;;;;;;;;5029577;28;20189;-58
2024/01/05 10:31:15;;;;;;;3.00;0.80;;;;;;;;;;5028532;28;20185;-57
2024/01/05 10:33:51;;;;;;;1.10;1.00;;;;;;;;;;5026499;28;20194;-58
2024/01/05 10:36:21;;;;;;;1.40;0.80;;;;;;;;;;5025744;28;20181;-57
2024/01/05 10:38:47;;;;;;;1.17;0.60;;;;;;;;;;5025875;28;20292;-58
2024/01/05 10:41:14;;;;;;;1.03;0.90;;;;;;;;;;5029956;28;20633;-58
2024/01/05 10:43:41;;;;;;;1.67;0.70;;;;;;;;;;5028003;28;20181;-60
2024/01/05 10:46:08;;;;;;;1.00;0.73;;;;;;;;;;5028499;28;20167;-57
2024/01/05 10:48:35;;;;;;;1.10;0.70;;;;;;;;;;5025093;28;20696;-58
2024/01/05 10:51:01;;;;;;;2.10;0.83;;;;;;;;;;5025719;28;20891;-58
2024/01/05 10:53:27;;;;;;;1.87;0.90;;;;;;;;;;5025470;28;20184;-58
2024/01/05 10:55:53;;;;;;;1.73;0.97;;;;;;;;;;5025564;28;20178;-58
2024/01/05 10:58:19;;;;;;;1.50;0.90;;;;;;;;;;5020562;28;20224;-57
2024/01/05 11:00:46;;;;;;;0.90;0.90;;;;;;;;;;5027806;28;20209;-58
2024/01/05 11:03:19;;;;;;;0.70;0.70;;;;;;;;;;5031912;28;20217;-57
2024/01/05 11:05:45;;;;;;;1.03;0.80;;;;;;;;;;5031308;28;20231;-58
2024/01/05 11:08:35;;;;;;;2.20;0.90;;;;;;;;;;5031494;28;20706;-58
2024/01/05 11:11:19;;;;;;;2.97;1.10;;;;;;;;;;5031597;28;20182;-58
2024/01/05 11:13:52;;;;;;;0.90;0.90;;;;;;;;;;5029595;28;20292;-58
2024/01/05 11:16:37;;;;;;;0.77;0.70;;;;;;;;;;5031804;28;20224;-55
2024/01/05 11:19:03;;;;;;;1.77;1.10;;;;;;;;;;5026609;28;20221;-54
2024/01/05 11:21:47;;;;;;;2.43;1.10;;;;;;;;;;5031709;28;20229;-54
2024/01/05 11:24:15;;;;;;;2.00;0.93;;;;;;;;;;5030161;28;20259;-55
2024/01/05 11:26:44;;;;;;;1.83;0.90;;;;;;;;;;5030051;28;20589;-55
2024/01/05 11:29:13;;;;;;;1.00;0.90;;;;;;;;;;5029241;28;20193;-55
2024/01/05 11:31:48;;;;;;;1.50;0.80;;;;;;;;;;5029610;28;20574;-55
2024/01/05 11:34:34;;;;;;;1.23;0.80;;;;;;;;;;5030390;28;20185;-54
2024/01/05 11:37:00;;;;;;;2.30;1.10;;;;;;;;;;5029846;28;20186;-56
2024/01/05 11:39:39;;;;;;;5.40;0.90;;;;;;;;;;5030617;28;20561;-55
2024/01/05 11:42:07;;;;;;;1.80;1.00;;;;;;;;;;5031461;28;20190;-55
2024/01/05 11:44:33;;;;;;;0.80;0.80;;;;;;;;;;5029707;28;20182;-55
2024/01/05 11:47:01;;;;;;;0.90;0.90;;;;;;;;;;5030424;28;20182;-55
2024/01/05 11:49:41;;;;;;;2.00;1.10;;;;;;;;;;5030132;28;20186;-55
2024/01/05 11:52:07;;;;;;;1.30;1.10;;;;;;;;;;5031281;28;20272;-55
2024/01/05 11:54:34;;;;;;;1.47;1.13;;;;;;;;;;5030027;28;20174;-55
2024/01/05 11:57:00;;;;;;;1.10;0.93;;;;;;;;;;5029275;28;20235;-55
2024/01/05 11:59:27;;;;;;;2.00;1.00;;;;;;;;;;5028866;28;20380;-55
2024/01/05 12:01:53;;;;;;;0.70;0.70;;;;;;;;;;5031501;28;20182;-55
2024/01/05 12:04:22;;;;;;;1.47;1.20;;;;;;;;;;5028626;28;20625;-55
2024/01/05 12:06:54;;;;;;;1.03;1.00;;;;;;;;;;5030223;28;20170;-54
2024/01/05 12:09:21;;;;;;;1.73;1.00;;;;;;;;;;5030397;28;20185;-55
2024/01/05 12:11:47;;;;;;;1.13;0.90;;;;;;;;;;5030641;28;20174;-55
2024/01/05 12:14:26;;;;;;;1.17;0.90;;;;;;;;;;5025182;28;20260;-55
2024/01/05 12:16:52;;;;;;;2.63;1.20;;;;;;;;;;5029820;28;20296;-55
2024/01/05 12:19:21;;;;;;;2.13;0.90;;;;;;;;;;5028645;28;20231;-55
2024/01/05 12:21:53;;;;;;;1.43;1.00;;;;;;;;;;5030822;28;20257;-55
2024/01/05 12:24:19;;;;;;;1.03;0.93;;;;;;;;;;5027745;28;20189;-54
2024/01/05 12:26:45;;;;;;;1.97;1.20;;;;;;;;;;5031424;28;20182;-53
2024/01/05 12:29:12;;;;;;;3.77;1.60;;;;;;;;;;5029145;28;20731;-53
2024/01/05 12:31:40;;;;;;;2.17;1.63;;;;;;;;;;5030382;28;20263;-54
2024/01/05 12:34:06;;;;;;;2.80;1.20;;;;;;;;;;5028687;28;20181;-54
2024/01/05 12:36:32;;;;;;;1.93;1.13;;;;;;;;;;5032113;28;20181;-52
2024/01/05 12:39:10;;;;;;;1.23;0.83;;;;;;;;;;5026879;28;20205;-53
2024/01/05 12:41:39;;;;;;;2.73;1.23;;;;;;;;;;5023220;28;20559;-53
2024/01/05 12:44:07;;;;;;;1.50;1.40;;;;;;;;;;5027412;28;20193;-53
2024/01/05 12:46:40;;;;;;;2.13;1.07;;;;;;;;;;5028849;28;20568;-52
2024/01/05 12:55:26;;;;;;;2.20;1.10;;;;;;;;;;5027031;28;20743;-52
2024/01/05 12:57:52;;;;;;;1.53;0.90;;;;;;;;;;5023642;28;20197;-54
2024/01/05 13:00:18;;;;;;;1.00;0.90;;;;;;;;;;5024427;28;20288;-54
2024/01/05 13:02:44;;;;;;;1.40;1.00;;;;;;;;;;5027790;28;20182;-53
2024/01/05 13:05:35;;;;;;;1.30;1.00;;;;;;;;;;5029904;28;20185;-52
2024/01/05 13:08:02;;;;;;;0.80;0.80;;;;;;;;;;5018893;28;20592;-52
2024/01/05 13:10:28;;;;;;;2.90;1.00;;;;;;;;;;5027869;28;20197;-53
2024/01/05 13:12:54;;;;;;;0.90;0.90;;;;;;;;;;5028350;28;20517;-52
2024/01/05 13:15:21;;;;;;;2.30;1.07;;;;;;;;;;5032297;28;20194;-53
2024/01/05 13:17:47;;;;;;;1.73;1.03;;;;;;;;;;5026502;28;20752;-52
2024/01/05 13:20:24;;;;;;;2.13;1.63;;;;;;;;;;5027158;28;20719;-53
2024/01/05 13:22:58;;;;;;;1.70;1.10;;;;;;;;;;5027957;28;20235;-52
2024/01/05 13:25:24;;;;;;;1.43;1.10;;;;;;;;;;5026887;28;20544;-53
2024/01/05 13:27:51;;;;;;;2.63;1.13;;;;;;;;;;5027649;28;20205;-54
2024/01/05 13:30:17;;;;;;;2.73;1.20;;;;;;;;;;5027268;28;20568;-53
2024/01/05 13:32:45;;;;;;;1.73;1.40;;;;;;;;;;5028057;28;20236;-53
2024/01/05 13:35:11;;;;;;;2.40;1.00;;;;;;;;;;5031269;28;20184;-53
2024/01/05 13:37:37;;;;;;;2.43;1.07;;;;;;;;;;5027135;28;20202;-57
2024/01/05 13:40:05;;;;;;;4.33;1.43;;;;;;;;;;5027621;28;20756;-57
2024/01/05 13:42:31;;;;;;;3.67;1.33;;;;;;;;;;5028025;28;20594;-57
2024/01/05 13:44:58;;;;;;;2.50;1.43;;;;;;;;;;5028125;28;20190;-56
2024/01/05 13:47:24;;;;;;;2.07;1.13;;;;;;;;;;5026817;28;20194;-54
2024/01/05 13:49:50;;;;;;;1.87;1.60;;;;;;;;;;5029158;28;20189;-52
2024/01/05 13:52:16;;;;;;;2.90;1.50;;;;;;;;;;5027799;28;20227;-53
2024/01/05 13:54:42;;;;;;;4.33;1.30;;;;;;;;;;5028921;28;20185;-51
2024/01/05 13:57:08;;;;;;;1.97;1.07;;;;;;;;;;5027721;28;20520;-54
2024/01/05 13:59:34;;;;;;;3.27;1.30;;;;;;;;;;5033363;28;20196;-52
2024/01/05 14:02:00;;;;;;;2.53;1.13;;;;;;;;;;5028308;28;20690;-54
2024/01/05 14:04:26;;;;;;;4.57;1.60;;;;;;;;;;5027156;28;20181;-52
2024/01/05 14:06:52;;;;;;;4.23;1.80;;;;;;;;;;5034019;28;20240;-53
2024/01/05 14:09:18;;;;;;;4.80;2.10;;;;;;;;;;5030950;28;20189;-53
2024/01/05 14:11:44;;;;;;;5.17;2.70;;;;;;;;;;5032283;28;20649;-53
2024/01/05 14:14:10;;;;;;;4.40;2.23;;;;;;;;;;5025996;28;20205;-53
2024/01/05 14:16:36;;;;;;;3.17;2.00;;;;;;;;;;5029489;28;20184;-52
2024/01/05 14:19:02;;;;;;;5.73;2.10;;;;;;;;;;5024667;28;20208;-52
2024/01/05 14:21:29;;;;;;;3.77;1.90;;;;;;;;;;5028173;28;20622;-54
2024/01/05 14:23:55;;;;;;;3.20;1.53;;;;;;;;;;5026495;28;20517;-53
2024/01/05 14:26:21;;;;;;;3.30;1.80;;;;;;;;;;5033588;28;20243;-52
2024/01/05 14:28:48;;;;;;;6.30;1.92;;;;;;;;;;5025391;28;20429;-53
2024/01/05 14:31:30;;;;;;;4.60;1.83;;;;;;;;;;5027251;28;20186;-53
2024/01/05 14:33:57;;;;;;;1.77;1.40;;;;;;;;;;5026925;28;20188;-52
2024/01/05 14:36:23;;;;;;;1.73;1.40;;;;;;;;;;5027611;28;20166;-52
2024/01/05 14:38:52;;;;;;;3.37;1.73;;;;;;;;;;5029832;28;20640;-51
2024/01/05 14:41:19;;;;;;;3.63;1.90;;;;;;;;;;5030805;28;20218;-53
2024/01/05 14:43:45;;;;;;;1.80;1.30;;;;;;;;;;5029805;28;20190;-54
2024/01/05 14:46:11;;;;;;;1.97;1.30;;;;;;;;;;5030476;28;20276;-52
2024/01/05 14:48:38;;;;;;;3.20;1.40;;;;;;;;;;5030066;28;20235;-53